Bowery Haven, Utah
Current Conditions -  °F | °C
As of 7:35 PM on Tuesday 21 Oct 2014 (Local Time) from KHVE Reporting Station
Scattered Clouds Scattered Clouds  
Wind Chill: 72°   Ceiling: Unl
Heat Index: 72°   Visibility: 10mi
Dew Point: 34°   Wind: 14mph
Humidity: 25%   Direction: 190°S
Pressure: 29.9"   Gusts: 21mph
Location:  38.7083°N, 111.729°W
Report Text: KHVE 220135Z AUTO 19012G18KT 10SM SCT110 22/01 A2990 RMK AO2
Loading
Personal Weather Stations






























Interactive Weather Map
Tropical Storm Tracking
New forecast layout! Learn more

10-Day Weather Forecast

Advertisements
Track Severe Weather on mobile